OEBA/ABT METAR and TAF weather

Enter ICAO airport designator
Station Type Date Time Source
OEBA METAR 2019/06/17 04:00 UTC NOAA

OEBA 170400Z 31010KT CAVOK 26/09 Q1019 NOSIG


Station Type Date Time Source
OEBA Decoded METAR 2019/06/17 04:00 UTC NOAA

Al Baha, Saudi Arabia (OEBA) 20-18N 041-38E 1662M
Jun 17, 2019 - 12:00 AM EDT / 2019.06.17 0400 UTC
Wind: from the NW (310 degrees) at 12 MPH (10 KT):0
Visibility: greater than 7 mile(s):0
Temperature: 78 F (26 C)
Dew Point: 48 F (9 C)
Relative Humidity: 34%
Pressure (altimeter): 30.09 in. Hg (1019 hPa)
ob: OEBA 170400Z 31010KT CAVOK 26/09 Q1019 NOSIG
cycle: 4

Station Type Date Time Source
OEBA TAF 2019/06/16 12:03 UTC NOAA

TAF OEBA 161100Z 1612/1718 29013KT 9999 SCT030 SCT090
TEMPO 1612/1618 6000 TSRA FEW025CB BKN030

Example: see airport list